Maimiti — PBIJ — position and weather

sailwx.info

Track history (hours):
 
Tides and Currents Weather Stations Pressure Air Temp Water Temp Dewpoint Dewpoint Depression Visibility Wind Speed Wind Dir Waves Ship Positions

Maimiti

Last reported at 2014-Nov-24 07:33 UTC. Time now 2014-Nov-28 08:28 UTC.
Position N 50°36' E 000°22'.

Length 89 m; draft 3.7 m.

Type: Cargo ship. MMSI: 244312000.

Date/timePositionNaut miles runAvg speedWind from/ knotsBaromVisibWave heightAir tempDewpointWater temp
2014-Nov-24 07:33N 50°36' E 000°22'1212.0
2014-Nov-24 06:33N 50°41' E 000°39'1313.0
2014-Nov-24 05:33N 50°48' E 000°56'1312.7
2014-Nov-24 04:30N 50°57' E 001°13'1111.6
2014-Nov-24 03:33N 51°04' E 001°27'10 9.9
2014-Nov-24 02:33N 51°10' E 001°39'9 9.1
2014-Nov-24 01:33N 51°17' E 001°48'10 9.6
2014-Nov-24 00:33N 51°24' E 001°58'1310.9
2014-Nov-23 23:19N 51°34' E 002°12'6511.0
2014-Nov-23 17:26N 52°02' E 003°47'910.4
2014-Nov-23 16:34N 51°60' E 004°02'1110.9
2014-Nov-23 15:34N 51°54' E 004°17'7 6.9
2014-Nov-23 14:34N 51°54' E 004°28'0 0.0
2014-Nov-23 13:34N 51°54' E 004°28'0 0.0
2014-Nov-23 12:34N 51°54' E 004°28'0 0.0
2014-Nov-23 11:33N 51°54' E 004°28'0 0.0
2014-Nov-23 10:34N 51°54' E 004°28'0 0.0
2014-Nov-23 09:34N 51°54' E 004°28'0 0.0
2014-Nov-23 08:34N 51°54' E 004°28'0 0.0
2014-Nov-23 07:34N 51°54' E 004°28'0 0.0
2014-Nov-23 06:34N 51°54' E 004°28'0 0.0
2014-Nov-23 05:34N 51°54' E 004°28'0 0.0
2014-Nov-23 04:33N 51°54' E 004°28'0 0.0
2014-Nov-23 03:33N 51°54' E 004°28'0 0.0
2014-Nov-23 02:34N 51°54' E 004°28'0 0.0
2014-Nov-23 01:34N 51°54' E 004°28'0 0.0
2014-Nov-23 00:34N 51°54' E 004°28'0 0.0
2014-Nov-22 23:33N 51°54' E 004°28'0 0.0
2014-Nov-22 22:34N 51°54' E 004°28'5 2.6
2014-Nov-22 20:27N 51°53' E 004°36'1110.2
2014-Nov-22 19:24N 51°49' E 004°52'1012.0
2014-Nov-22 18:33N 51°49' E 005°09'1010.3
2014-Nov-22 17:33N 51°52' E 005°25'60 8.5
2014-Nov-22 10:31N 51°16' E 006°42'8 7.5
2014-Nov-22 09:26N 51°09' E 006°49'0 0.0
2014-Nov-20 13:27N 51°09' E 006°50'3 3.8
2014-Nov-20 12:34N 51°11' E 006°45'4 3.9
2014-Nov-20 11:33N 51°15' E 006°46'60 5.0
2014-Nov-19 23:29N 51°53' E 005°31'6 6.8
2014-Nov-19 22:33N 51°49' E 005°23'7 6.9
2014-Nov-19 21:33N 51°49' E 005°12'9 8.3
2014-Nov-19 20:32N 51°49' E 004°58'9 9.1
2014-Nov-19 19:34N 51°49' E 004°44'9 7.9
2014-Nov-19 18:26N 51°54' E 004°31'2 2.8
2014-Nov-19 17:33N 51°54' E 004°27'0 0.0
2014-Nov-19 16:33N 51°54' E 004°27'0 0.0
2014-Nov-19 15:33N 51°54' E 004°27'0 0.0
2014-Nov-19 14:32N 51°54' E 004°27'0 0.0
2014-Nov-19 13:32N 51°54' E 004°27'0 0.0
2014-Nov-19 12:32N 51°54' E 004°27'0 0.0
2014-Nov-19 11:33N 51°54' E 004°27'0 0.0
2014-Nov-19 10:32N 51°54' E 004°27'0 0.0
2014-Nov-19 09:33N 51°54' E 004°28'0 0.0
2014-Nov-19 07:33N 51°54' E 004°27'5 4.9
2014-Nov-19 06:33N 51°54' E 004°20'9 8.8
2014-Nov-19 05:33N 51°58' E 004°08'8 8.2
2014-Nov-19 04:33N 52°07' E 004°07'6 6.0
2014-Nov-19 03:31N 52°12' E 004°12'0 0.1
2014-Nov-19 02:31N 52°12' E 004°12'0 0.0
2014-Nov-19 01:31N 52°12' E 004°12'0 0.0
2014-Nov-19 00:31N 52°12' E 004°12'0 0.0
2014-Nov-18 23:28N 52°12' E 004°12'0 0.1
2014-Nov-18 22:28N 52°12' E 004°12'0 0.1
2014-Nov-18 21:31N 52°12' E 004°12'0 0.0
2014-Nov-18 20:31N 52°12' E 004°12'0 0.0
2014-Nov-18 19:31N 52°12' E 004°12'0 0.0
2014-Nov-18 18:31N 52°12' E 004°12'0 0.0
2014-Nov-18 17:25N 52°12' E 004°12'0 0.0
2014-Nov-18 16:34N 52°12' E 004°12'0 0.0
2014-Nov-18 15:33N 52°12' E 004°12'0 0.0
2014-Nov-18 14:33N 52°12' E 004°12'0 0.1
2014-Nov-18 13:33N 52°12' E 004°12'5 4.8
2014-Nov-18 12:33N 52°17' E 004°14'1010.0
2014-Nov-18 11:33N 52°26' E 004°19'1010.3
2014-Nov-18 10:32N 52°37' E 004°21'2711.8
2014-Nov-18 08:17N 53°03' E 004°29'5511.2
2014-Nov-18 03:23N 53°57' E 004°45'25010.5
2014-Nov-17 03:33N 58°03' E 006°04'9 8.7
2014-Nov-17 02:33N 58°11' E 005°58'9 9.0
2014-Nov-17 01:33N 58°19' E 005°50'9 9.4
2014-Nov-17 00:33N 58°27' E 005°42'2010.1
2014-Nov-16 22:34N 58°46' E 005°25'1111.2
2014-Nov-16 21:33N 58°56' E 005°33'8 8.0
2014-Nov-16 20:33N 59°01' E 005°45'4 4.2
2014-Nov-16 19:33N 58°57' E 005°45'0 0.0
2014-Nov-16 18:33N 58°57' E 005°45'0 0.0
2014-Nov-16 17:33N 58°57' E 005°45'0 0.0
2014-Nov-16 16:33N 58°57' E 005°45'0 0.0
2014-Nov-16 15:33N 58°57' E 005°45'0 0.0
2014-Nov-16 14:33N 58°57' E 005°45'0 0.0
2014-Nov-16 13:32N 58°57' E 005°45'0 0.0
2014-Nov-16 12:32N 58°57' E 005°45'0 0.0
2014-Nov-16 11:32N 58°57' E 005°45'0 0.0
2014-Nov-16 10:32N 58°57' E 005°45'0 0.0
2014-Nov-16 09:32N 58°57' E 005°45'0 0.0
2014-Nov-16 08:32N 58°57' E 005°45'0 0.0
2014-Nov-16 07:32N 58°57' E 005°45'0 0.0
2014-Nov-16 06:32N 58°57' E 005°45'0 0.0
2014-Nov-16 05:32N 58°57' E 005°45'0 0.0
2014-Nov-16 04:32N 58°57' E 005°45'0 0.0
2014-Nov-16 03:32N 58°57' E 005°45'0 0.0
2014-Nov-16 02:32N 58°57' E 005°45'0 0.0
2014-Nov-16 01:32N 58°57' E 005°45'0 0.0
2014-Nov-16 00:32N 58°57' E 005°45'0 0.0
2014-Nov-15 23:32N 58°57' E 005°45'0 0.0
2014-Nov-15 22:32N 58°57' E 005°45'0 0.0
2014-Nov-15 21:32N 58°57' E 005°45'0 0.0
2014-Nov-15 20:32N 58°57' E 005°45'0 0.0
2014-Nov-15 19:32N 58°57' E 005°45'0 0.0
2014-Nov-15 18:32N 58°57' E 005°45'0 0.0
2014-Nov-15 17:32N 58°57' E 005°45'0 0.0
2014-Nov-15 16:32N 58°57' E 005°45'0 0.0
2014-Nov-15 15:32N 58°57' E 005°45'0 0.0
2014-Nov-15 14:32N 58°57' E 005°45'0 0.0
2014-Nov-15 13:32N 58°57' E 005°45'0 0.0
2014-Nov-15 12:32N 58°57' E 005°45'0 0.0
2014-Nov-15 11:32N 58°57' E 005°45'4 4.3
2014-Nov-15 10:33N 59°01' E 005°45'7 6.9
2014-Nov-15 09:33N 58°58' E 005°33'9 9.0
2014-Nov-15 08:33N 58°49' E 005°27'2210.9
2014-Nov-15 06:33N 58°29' E 005°40'1111.4
2014-Nov-15 05:33N 58°21' E 005°56'1110.7
2014-Nov-15 04:32N 58°14' E 006°12'15310.8
2014-Nov-14 14:24N 57°49' E 010°57'2111.6
2014-Nov-14 12:33N 57°30' E 011°16'1211.6
2014-Nov-14 11:33N 57°20' E 011°28'  
Track history (hours):
 
Tides and Currents Weather Stations Pressure Air Temp Water Temp Dewpoint Dewpoint Depression Visibility Wind Speed Wind Dir Waves Ship Positions

Maimiti

Last reported at 2014-Nov-24 07:33 UTC. Time now 2014-Nov-28 08:28 UTC.
Position N 50°36' E 000°22'.

Length 89 m; draft 3.7 m.

Type: Cargo ship. MMSI: 244312000.

Date/timePositionNaut miles runAvg speedWind from/ knotsBaromVisibWave heightAir tempDewpointWater temp
2014-Nov-24 07:33N 50°36' E 000°22'1212.0
2014-Nov-24 06:33N 50°41' E 000°39'1313.0
2014-Nov-24 05:33N 50°48' E 000°56'1312.7
2014-Nov-24 04:30N 50°57' E 001°13'1111.6
2014-Nov-24 03:33N 51°04' E 001°27'10 9.9
2014-Nov-24 02:33N 51°10' E 001°39'9 9.1
2014-Nov-24 01:33N 51°17' E 001°48'10 9.6
2014-Nov-24 00:33N 51°24' E 001°58'1310.9
2014-Nov-23 23:19N 51°34' E 002°12'6511.0
2014-Nov-23 17:26N 52°02' E 003°47'910.4
2014-Nov-23 16:34N 51°60' E 004°02'1110.9
2014-Nov-23 15:34N 51°54' E 004°17'7 6.9
2014-Nov-23 14:34N 51°54' E 004°28'0 0.0
2014-Nov-23 13:34N 51°54' E 004°28'0 0.0
2014-Nov-23 12:34N 51°54' E 004°28'0 0.0
2014-Nov-23 11:33N 51°54' E 004°28'0 0.0
2014-Nov-23 10:34N 51°54' E 004°28'0 0.0
2014-Nov-23 09:34N 51°54' E 004°28'0 0.0
2014-Nov-23 08:34N 51°54' E 004°28'0 0.0
2014-Nov-23 07:34N 51°54' E 004°28'0 0.0
2014-Nov-23 06:34N 51°54' E 004°28'0 0.0
2014-Nov-23 05:34N 51°54' E 004°28'0 0.0
2014-Nov-23 04:33N 51°54' E 004°28'0 0.0
2014-Nov-23 03:33N 51°54' E 004°28'0 0.0
2014-Nov-23 02:34N 51°54' E 004°28'0 0.0
2014-Nov-23 01:34N 51°54' E 004°28'0 0.0
2014-Nov-23 00:34N 51°54' E 004°28'0 0.0
2014-Nov-22 23:33N 51°54' E 004°28'0 0.0
2014-Nov-22 22:34N 51°54' E 004°28'5 2.6
2014-Nov-22 20:27N 51°53' E 004°36'1110.2
2014-Nov-22 19:24N 51°49' E 004°52'1012.0
2014-Nov-22 18:33N 51°49' E 005°09'1010.3
2014-Nov-22 17:33N 51°52' E 005°25'60 8.5
2014-Nov-22 10:31N 51°16' E 006°42'8 7.5
2014-Nov-22 09:26N 51°09' E 006°49'0 0.0
2014-Nov-20 13:27N 51°09' E 006°50'3 3.8
2014-Nov-20 12:34N 51°11' E 006°45'4 3.9
2014-Nov-20 11:33N 51°15' E 006°46'60 5.0
2014-Nov-19 23:29N 51°53' E 005°31'6 6.8
2014-Nov-19 22:33N 51°49' E 005°23'7 6.9
2014-Nov-19 21:33N 51°49' E 005°12'9 8.3
2014-Nov-19 20:32N 51°49' E 004°58'9 9.1
2014-Nov-19 19:34N 51°49' E 004°44'9 7.9
2014-Nov-19 18:26N 51°54' E 004°31'2 2.8
2014-Nov-19 17:33N 51°54' E 004°27'0 0.0
2014-Nov-19 16:33N 51°54' E 004°27'0 0.0
2014-Nov-19 15:33N 51°54' E 004°27'0 0.0
2014-Nov-19 14:32N 51°54' E 004°27'0 0.0
2014-Nov-19 13:32N 51°54' E 004°27'0 0.0
2014-Nov-19 12:32N 51°54' E 004°27'0 0.0
2014-Nov-19 11:33N 51°54' E 004°27'0 0.0
2014-Nov-19 10:32N 51°54' E 004°27'0 0.0
2014-Nov-19 09:33N 51°54' E 004°28'0 0.0
2014-Nov-19 07:33N 51°54' E 004°27'5 4.9
2014-Nov-19 06:33N 51°54' E 004°20'9 8.8
2014-Nov-19 05:33N 51°58' E 004°08'8 8.2
2014-Nov-19 04:33N 52°07' E 004°07'6 6.0
2014-Nov-19 03:31N 52°12' E 004°12'0 0.1
2014-Nov-19 02:31N 52°12' E 004°12'0 0.0
2014-Nov-19 01:31N 52°12' E 004°12'0 0.0
2014-Nov-19 00:31N 52°12' E 004°12'0 0.0
2014-Nov-18 23:28N 52°12' E 004°12'0 0.1
2014-Nov-18 22:28N 52°12' E 004°12'0 0.1
2014-Nov-18 21:31N 52°12' E 004°12'0 0.0
2014-Nov-18 20:31N 52°12' E 004°12'0 0.0
2014-Nov-18 19:31N 52°12' E 004°12'0 0.0
2014-Nov-18 18:31N 52°12' E 004°12'0 0.0
2014-Nov-18 17:25N 52°12' E 004°12'0 0.0
2014-Nov-18 16:34N 52°12' E 004°12'0 0.0
2014-Nov-18 15:33N 52°12' E 004°12'0 0.0
2014-Nov-18 14:33N 52°12' E 004°12'0 0.1
2014-Nov-18 13:33N 52°12' E 004°12'5 4.8
2014-Nov-18 12:33N 52°17' E 004°14'1010.0
2014-Nov-18 11:33N 52°26' E 004°19'1010.3
2014-Nov-18 10:32N 52°37' E 004°21'2711.8
2014-Nov-18 08:17N 53°03' E 004°29'5511.2
2014-Nov-18 03:23N 53°57' E 004°45'25010.5
2014-Nov-17 03:33N 58°03' E 006°04'9 8.7
2014-Nov-17 02:33N 58°11' E 005°58'9 9.0
2014-Nov-17 01:33N 58°19' E 005°50'9 9.4
2014-Nov-17 00:33N 58°27' E 005°42'2010.1
2014-Nov-16 22:34N 58°46' E 005°25'1111.2
2014-Nov-16 21:33N 58°56' E 005°33'8 8.0
2014-Nov-16 20:33N 59°01' E 005°45'4 4.2
2014-Nov-16 19:33N 58°57' E 005°45'0 0.0
2014-Nov-16 18:33N 58°57' E 005°45'0 0.0
2014-Nov-16 17:33N 58°57' E 005°45'0 0.0
2014-Nov-16 16:33N 58°57' E 005°45'0 0.0
2014-Nov-16 15:33N 58°57' E 005°45'0 0.0
2014-Nov-16 14:33N 58°57' E 005°45'0 0.0
2014-Nov-16 13:32N 58°57' E 005°45'0 0.0
2014-Nov-16 12:32N 58°57' E 005°45'0 0.0
2014-Nov-16 11:32N 58°57' E 005°45'0 0.0
2014-Nov-16 10:32N 58°57' E 005°45'0 0.0
2014-Nov-16 09:32N 58°57' E 005°45'0 0.0
2014-Nov-16 08:32N 58°57' E 005°45'0 0.0
2014-Nov-16 07:32N 58°57' E 005°45'0 0.0
2014-Nov-16 06:32N 58°57' E 005°45'0 0.0
2014-Nov-16 05:32N 58°57' E 005°45'0 0.0
2014-Nov-16 04:32N 58°57' E 005°45'0 0.0
2014-Nov-16 03:32N 58°57' E 005°45'0 0.0
2014-Nov-16 02:32N 58°57' E 005°45'0 0.0
2014-Nov-16 01:32N 58°57' E 005°45'0 0.0
2014-Nov-16 00:32N 58°57' E 005°45'0 0.0
2014-Nov-15 23:32N 58°57' E 005°45'0 0.0
2014-Nov-15 22:32N 58°57' E 005°45'0 0.0
2014-Nov-15 21:32N 58°57' E 005°45'0 0.0
2014-Nov-15 20:32N 58°57' E 005°45'0 0.0
2014-Nov-15 19:32N 58°57' E 005°45'0 0.0
2014-Nov-15 18:32N 58°57' E 005°45'0 0.0
2014-Nov-15 17:32N 58°57' E 005°45'0 0.0
2014-Nov-15 16:32N 58°57' E 005°45'0 0.0
2014-Nov-15 15:32N 58°57' E 005°45'0 0.0
2014-Nov-15 14:32N 58°57' E 005°45'0 0.0
2014-Nov-15 13:32N 58°57' E 005°45'0 0.0
2014-Nov-15 12:32N 58°57' E 005°45'0 0.0
2014-Nov-15 11:32N 58°57' E 005°45'4 4.3
2014-Nov-15 10:33N 59°01' E 005°45'7 6.9
2014-Nov-15 09:33N 58°58' E 005°33'9 9.0
2014-Nov-15 08:33N 58°49' E 005°27'2210.9
2014-Nov-15 06:33N 58°29' E 005°40'1111.4
2014-Nov-15 05:33N 58°21' E 005°56'1110.7
2014-Nov-15 04:32N 58°14' E 006°12'15310.8
2014-Nov-14 14:24N 57°49' E 010°57'2111.6
2014-Nov-14 12:33N 57°30' E 011°16'1211.6
2014-Nov-14 11:33N 57°20' E 011°28'  

Dump ship's entire track history